This is the latest recevied weather packets stored in our database for station/object BMCB-30. If no packets are shown the sender has not sent any weather packets the latest 10 day(s).
| Time | Temp. | Humidity | Pressure | Rain* | Wind** | Luminosity | Snow |
|---|---|---|---|---|---|---|---|
| 1777544444 | 16.11° C | 25% | 1025.8 hPa | 0 mm | - | 682 W/m² | - |
| 1777543843 | 16.11° C | 26% | 1025.8 hPa | 0 mm | - | 542 W/m² | - |
| 1777543245 | 16.11° C | 26% | 1025.8 hPa | 0 mm | - | 278 W/m² | - |
| 1777542045 | 15° C | 28% | 1026.1 hPa | 0 mm | - | 366 W/m² | - |
| 1777539045 | 13.89° C | 32% | 1026.3 hPa | 0 mm | - | 504 W/m² | - |
| 1777534846 | 12.78° C | 38% | 1026.7 hPa | 0 mm | - | 470 W/m² | - |
| 1777531247 | 10° C | 42% | 1026.9 hPa | 0 mm | - | 294 W/m² | - |
| 1777526446 | 6.67° C | 51% | 1026.7 hPa | 0 mm | - | 16 W/m² | - |
| 1777523447 | 7.22° C | 50% | 1026.3 hPa | 0 mm | - | 4 W/m² | - |
| 1777507844 | 10.56° C | 43% | 1025.8 hPa | 0 mm | - | 0 W/m² | - |
| 1777506647 | 10.56° C | 43% | 1025.9 hPa | 0 mm | - | 0 W/m² | - |
| 1777504245 | 11.11° C | 41% | 1025.9 hPa | 0 mm | - | 0 W/m² | - |
| 1777497647 | 12.78° C | 35% | 1025.1 hPa | 0 mm | - | 0 W/m² | - |
| 1777483246 | 19.44° C | 26% | 1022.2 hPa | 0 mm | - | 96 W/m² | - |
| 1777482646 | 19.44° C | 27% | 1022.1 hPa | 0 mm | - | 154 W/m² | - |
| 1777482048 | 20° C | 26% | 1022.1 hPa | 0 mm | - | 232 W/m² | - |
| 1777469443 | 20.56° C | 28% | 1022.2 hPa | 0 mm | - | 450 W/m² | - |
| 1777468844 | 20.56° C | 28% | 1022.2 hPa | 0 mm | - | 498 W/m² | - |
| 1777464045 | 19.44° C | 31% | 1022.7 hPa | 0 mm | - | 488 W/m² | - |
| 1777462844 | 19.44° C | 32% | 1022.7 hPa | 0 mm | - | 340 W/m² | - |
| 1777456843 | 18.33° C | 38% | 1023 hPa | 0 mm | - | 306 W/m² | - |
| 1777455045 | 17.78° C | 39% | 1023.1 hPa | 0 mm | - | 342 W/m² | - |
| 1777446046 | 12.22° C | 51% | 1023.4 hPa | 0 mm | - | 336 W/m² | - |
| 1777440044 | 7.22° C | 65% | 1023.3 hPa | 0 mm | - | 16 W/m² | - |
| 1777426246 | 8.89° C | 64% | 1022.3 hPa | 0 mm | - | 0 W/m² | - |
* Rain latest hour (hover to see other rain measurements)
** Current wind speed in m/s (hover to see current wind gust speed)